sensor_id;sensor_type;location;lat;lon;timestamp;P1;durP1;ratioP1;P2;durP2;ratioP2
61091;SDS011;46975;51.898;11.444;2022-11-25T00:01:26;10.63;;;6.00;;
61091;SDS011;46975;51.898;11.444;2022-11-25T00:03:53;21.23;;;9.90;;
61091;SDS011;46975;51.898;11.444;2022-11-25T00:06:21;15.15;;;8.55;;
61091;SDS011;46975;51.898;11.444;2022-11-25T00:08:58;10.18;;;4.90;;
61091;SDS011;46975;51.898;11.444;2022-11-25T00:11:25;10.27;;;4.00;;
61091;SDS011;46975;51.898;11.444;2022-11-25T00:13:52;9.75;;;4.35;;
61091;SDS011;46975;51.898;11.444;2022-11-25T00:16:19;5.53;;;2.92;;
61091;SDS011;46975;51.898;11.444;2022-11-25T00:18:46;5.05;;;3.42;;
61091;SDS011;46975;51.898;11.444;2022-11-25T00:21:14;7.78;;;3.55;;
61091;SDS011;46975;51.898;11.444;2022-11-25T00:23:41;8.15;;;3.85;;
61091;SDS011;46975;51.898;11.444;2022-11-25T00:26:14;8.82;;;3.92;;
61091;SDS011;46975;51.898;11.444;2022-11-25T00:28:41;8.00;;;3.78;;
61091;SDS011;46975;51.898;11.444;2022-11-25T00:31:09;7.57;;;3.20;;
61091;SDS011;46975;51.898;11.444;2022-11-25T00:33:37;9.02;;;3.95;;
61091;SDS011;46975;51.898;11.444;2022-11-25T00:36:03;6.25;;;3.55;;
61091;SDS011;46975;51.898;11.444;2022-11-25T00:38:30;6.93;;;3.65;;
61091;SDS011;46975;51.898;11.444;2022-11-25T00:40:56;6.15;;;2.83;;
61091;SDS011;46975;51.898;11.444;2022-11-25T00:43:40;6.57;;;3.70;;
61091;SDS011;46975;51.898;11.444;2022-11-25T00:46:25;8.68;;;3.08;;
61091;SDS011;46975;51.898;11.444;2022-11-25T00:48:50;5.35;;;2.95;;
61091;SDS011;46975;51.898;11.444;2022-11-25T00:51:16;4.20;;;2.47;;
61091;SDS011;46975;51.898;11.444;2022-11-25T00:53:42;4.78;;;2.67;;
61091;SDS011;46975;51.898;11.444;2022-11-25T00:56:08;4.93;;;2.63;;
61091;SDS011;46975;51.898;11.444;2022-11-25T00:58:40;7.45;;;2.92;;
61091;SDS011;46975;51.898;11.444;2022-11-25T01:01:06;7.43;;;2.92;;
61091;SDS011;46975;51.898;11.444;2022-11-25T01:03:33;7.55;;;3.20;;
61091;SDS011;46975;51.898;11.444;2022-11-25T01:06:01;7.32;;;3.17;;
61091;SDS011;46975;51.898;11.444;2022-11-25T01:08:34;9.40;;;2.88;;
61091;SDS011;46975;51.898;11.444;2022-11-25T01:11:03;6.28;;;2.38;;
61091;SDS011;46975;51.898;11.444;2022-11-25T01:13:34;6.97;;;3.25;;
61091;SDS011;46975;51.898;11.444;2022-11-25T01:16:00;8.02;;;3.47;;
61091;SDS011;46975;51.898;11.444;2022-11-25T01:18:27;5.10;;;2.35;;
61091;SDS011;46975;51.898;11.444;2022-11-25T01:20:53;7.60;;;3.63;;
61091;SDS011;46975;51.898;11.444;2022-11-25T01:23:19;10.40;;;4.00;;
61091;SDS011;46975;51.898;11.444;2022-11-25T01:25:45;11.32;;;5.20;;
61091;SDS011;46975;51.898;11.444;2022-11-25T01:28:10;11.93;;;4.13;;
61091;SDS011;46975;51.898;11.444;2022-11-25T01:30:38;10.70;;;4.00;;
61091;SDS011;46975;51.898;11.444;2022-11-25T01:33:04;9.20;;;2.58;;
61091;SDS011;46975;51.898;11.444;2022-11-25T01:35:29;10.13;;;3.13;;
61091;SDS011;46975;51.898;11.444;2022-11-25T01:37:55;6.43;;;2.13;;
61091;SDS011;46975;51.898;11.444;2022-11-25T01:40:20;5.22;;;2.20;;
61091;SDS011;46975;51.898;11.444;2022-11-25T01:42:46;12.77;;;3.45;;
61091;SDS011;46975;51.898;11.444;2022-11-25T01:47:50;6.32;;;2.38;;
61091;SDS011;46975;51.898;11.444;2022-11-25T01:50:20;5.13;;;1.92;;
61091;SDS011;46975;51.898;11.444;2022-11-25T01:52:49;5.70;;;1.58;;
61091;SDS011;46975;51.898;11.444;2022-11-25T01:55:19;7.70;;;3.60;;
61091;SDS011;46975;51.898;11.444;2022-11-25T01:58:05;4.60;;;1.70;;
61091;SDS011;46975;51.898;11.444;2022-11-25T02:00:35;6.22;;;2.08;;
61091;SDS011;46975;51.898;11.444;2022-11-25T02:03:02;3.97;;;2.22;;
61091;SDS011;46975;51.898;11.444;2022-11-25T02:05:31;4.38;;;1.40;;
61091;SDS011;46975;51.898;11.444;2022-11-25T02:08:02;5.15;;;1.80;;
61091;SDS011;46975;51.898;11.444;2022-11-25T02:10:30;11.13;;;2.50;;
61091;SDS011;46975;51.898;11.444;2022-11-25T02:15:24;9.13;;;2.10;;
61091;SDS011;46975;51.898;11.444;2022-11-25T02:17:50;5.32;;;1.98;;
61091;SDS011;46975;51.898;11.444;2022-11-25T02:20:17;8.32;;;2.88;;
61091;SDS011;46975;51.898;11.444;2022-11-25T02:25:21;10.63;;;1.92;;
61091;SDS011;46975;51.898;11.444;2022-11-25T02:27:57;8.73;;;2.58;;
61091;SDS011;46975;51.898;11.444;2022-11-25T02:30:31;6.95;;;2.45;;
61091;SDS011;46975;51.898;11.444;2022-11-25T02:32:58;7.20;;;2.30;;
61091;SDS011;46975;51.898;11.444;2022-11-25T02:35:25;5.70;;;1.98;;
61091;SDS011;46975;51.898;11.444;2022-11-25T02:38:07;6.90;;;2.65;;
61091;SDS011;46975;51.898;11.444;2022-11-25T02:40:33;4.07;;;1.77;;
61091;SDS011;46975;51.898;11.444;2022-11-25T02:43:04;8.13;;;2.03;;
61091;SDS011;46975;51.898;11.444;2022-11-25T02:45:36;8.98;;;2.13;;
61091;SDS011;46975;51.898;11.444;2022-11-25T02:50:33;8.18;;;2.25;;
61091;SDS011;46975;51.898;11.444;2022-11-25T02:52:59;5.63;;;2.60;;
61091;SDS011;46975;51.898;11.444;2022-11-25T02:55:25;11.32;;;2.60;;
61091;SDS011;46975;51.898;11.444;2022-11-25T02:57:50;3.33;;;1.85;;
61091;SDS011;46975;51.898;11.444;2022-11-25T03:00:16;6.57;;;2.22;;
61091;SDS011;46975;51.898;11.444;2022-11-25T03:02:42;2.75;;;1.70;;
61091;SDS011;46975;51.898;11.444;2022-11-25T03:05:08;8.55;;;2.60;;
61091;SDS011;46975;51.898;11.444;2022-11-25T03:07:33;6.18;;;1.95;;
61091;SDS011;46975;51.898;11.444;2022-11-25T03:09:59;7.13;;;2.15;;
61091;SDS011;46975;51.898;11.444;2022-11-25T03:12:25;6.15;;;2.55;;
61091;SDS011;46975;51.898;11.444;2022-11-25T03:14:52;11.43;;;2.55;;
61091;SDS011;46975;51.898;11.444;2022-11-25T03:17:18;6.82;;;2.47;;
61091;SDS011;46975;51.898;11.444;2022-11-25T03:19:44;8.48;;;2.50;;
61091;SDS011;46975;51.898;11.444;2022-11-25T03:22:09;11.13;;;3.17;;
61091;SDS011;46975;51.898;11.444;2022-11-25T03:24:35;11.13;;;3.08;;
61091;SDS011;46975;51.898;11.444;2022-11-25T03:27:00;10.50;;;3.60;;
61091;SDS011;46975;51.898;11.444;2022-11-25T03:29:26;6.03;;;3.00;;
61091;SDS011;46975;51.898;11.444;2022-11-25T03:31:52;13.05;;;4.88;;
61091;SDS011;46975;51.898;11.444;2022-11-25T03:34:17;11.05;;;3.53;;
61091;SDS011;46975;51.898;11.444;2022-11-25T03:36:43;7.90;;;2.50;;
61091;SDS011;46975;51.898;11.444;2022-11-25T03:39:08;6.47;;;2.63;;
61091;SDS011;46975;51.898;11.444;2022-11-25T03:41:34;10.77;;;2.83;;
61091;SDS011;46975;51.898;11.444;2022-11-25T03:44:00;8.73;;;2.70;;
61091;SDS011;46975;51.898;11.444;2022-11-25T03:46:25;5.78;;;2.45;;
61091;SDS011;46975;51.898;11.444;2022-11-25T03:48:51;7.90;;;2.72;;
61091;SDS011;46975;51.898;11.444;2022-11-25T03:51:17;8.57;;;3.83;;
61091;SDS011;46975;51.898;11.444;2022-11-25T03:53:43;6.57;;;2.65;;
61091;SDS011;46975;51.898;11.444;2022-11-25T03:56:09;10.40;;;2.85;;
61091;SDS011;46975;51.898;11.444;2022-11-25T03:58:35;7.45;;;3.53;;
61091;SDS011;46975;51.898;11.444;2022-11-25T04:01:01;19.77;;;2.45;;
61091;SDS011;46975;51.898;11.444;2022-11-25T04:03:27;7.50;;;3.90;;
61091;SDS011;46975;51.898;11.444;2022-11-25T04:05:53;2.70;;;1.80;;
61091;SDS011;46975;51.898;11.444;2022-11-25T04:08:20;10.95;;;2.58;;
61091;SDS011;46975;51.898;11.444;2022-11-25T04:10:47;7.75;;;2.67;;
61091;SDS011;46975;51.898;11.444;2022-11-25T04:13:14;4.10;;;2.37;;
61091;SDS011;46975;51.898;11.444;2022-11-25T04:15:46;6.82;;;2.40;;
61091;SDS011;46975;51.898;11.444;2022-11-25T04:18:13;10.27;;;3.03;;
61091;SDS011;46975;51.898;11.444;2022-11-25T04:20:39;6.63;;;2.72;;
61091;SDS011;46975;51.898;11.444;2022-11-25T04:23:05;5.72;;;2.08;;
61091;SDS011;46975;51.898;11.444;2022-11-25T04:25:31;9.30;;;1.83;;
61091;SDS011;46975;51.898;11.444;2022-11-25T04:27:57;7.13;;;2.10;;
61091;SDS011;46975;51.898;11.444;2022-11-25T04:30:23;6.85;;;1.90;;
61091;SDS011;46975;51.898;11.444;2022-11-25T04:32:49;4.88;;;2.00;;
61091;SDS011;46975;51.898;11.444;2022-11-25T04:35:15;9.18;;;3.10;;
61091;SDS011;46975;51.898;11.444;2022-11-25T04:37:41;6.35;;;3.53;;
61091;SDS011;46975;51.898;11.444;2022-11-25T04:40:06;5.75;;;2.17;;
61091;SDS011;46975;51.898;11.444;2022-11-25T04:42:32;7.60;;;2.40;;
61091;SDS011;46975;51.898;11.444;2022-11-25T04:45:00;15.65;;;3.13;;
61091;SDS011;46975;51.898;11.444;2022-11-25T04:47:30;5.95;;;2.05;;
61091;SDS011;46975;51.898;11.444;2022-11-25T04:49:56;6.45;;;2.33;;
61091;SDS011;46975;51.898;11.444;2022-11-25T04:52:22;6.18;;;2.58;;
61091;SDS011;46975;51.898;11.444;2022-11-25T04:54:48;5.20;;;2.42;;
61091;SDS011;46975;51.898;11.444;2022-11-25T04:57:14;6.38;;;3.50;;
61091;SDS011;46975;51.898;11.444;2022-11-25T04:59:40;11.48;;;3.17;;
61091;SDS011;46975;51.898;11.444;2022-11-25T05:02:20;6.35;;;2.10;;
61091;SDS011;46975;51.898;11.444;2022-11-25T05:04:48;11.98;;;2.63;;
61091;SDS011;46975;51.898;11.444;2022-11-25T05:07:17;8.88;;;2.80;;
61091;SDS011;46975;51.898;11.444;2022-11-25T05:09:44;8.27;;;2.35;;
61091;SDS011;46975;51.898;11.444;2022-11-25T05:12:11;6.70;;;2.55;;
61091;SDS011;46975;51.898;11.444;2022-11-25T05:14:41;7.22;;;3.08;;
61091;SDS011;46975;51.898;11.444;2022-11-25T05:17:09;12.93;;;3.60;;
61091;SDS011;46975;51.898;11.444;2022-11-25T05:19:38;8.98;;;4.03;;
61091;SDS011;46975;51.898;11.444;2022-11-25T05:22:04;10.10;;;2.92;;
61091;SDS011;46975;51.898;11.444;2022-11-25T05:24:29;7.25;;;2.45;;
61091;SDS011;46975;51.898;11.444;2022-11-25T05:26:55;8.10;;;2.67;;
61091;SDS011;46975;51.898;11.444;2022-11-25T05:29:21;5.60;;;2.38;;
61091;SDS011;46975;51.898;11.444;2022-11-25T05:31:47;7.07;;;2.67;;
61091;SDS011;46975;51.898;11.444;2022-11-25T05:34:13;8.73;;;2.28;;
61091;SDS011;46975;51.898;11.444;2022-11-25T05:36:38;12.05;;;3.70;;
61091;SDS011;46975;51.898;11.444;2022-11-25T05:39:04;7.35;;;2.47;;
61091;SDS011;46975;51.898;11.444;2022-11-25T05:41:30;8.70;;;2.85;;
61091;SDS011;46975;51.898;11.444;2022-11-25T05:43:55;11.25;;;4.03;;
61091;SDS011;46975;51.898;11.444;2022-11-25T05:46:21;5.65;;;3.20;;
61091;SDS011;46975;51.898;11.444;2022-11-25T05:48:47;8.25;;;2.45;;
61091;SDS011;46975;51.898;11.444;2022-11-25T05:51:16;8.82;;;2.92;;
61091;SDS011;46975;51.898;11.444;2022-11-25T05:53:42;12.80;;;2.85;;
61091;SDS011;46975;51.898;11.444;2022-11-25T05:56:08;6.55;;;2.22;;
61091;SDS011;46975;51.898;11.444;2022-11-25T05:58:34;6.97;;;2.53;;
61091;SDS011;46975;51.898;11.444;2022-11-25T06:01:00;10.05;;;2.72;;
61091;SDS011;46975;51.898;11.444;2022-11-25T06:03:31;8.80;;;2.30;;
61091;SDS011;46975;51.898;11.444;2022-11-25T06:05:57;8.27;;;3.03;;
61091;SDS011;46975;51.898;11.444;2022-11-25T06:08:24;9.63;;;2.58;;
61091;SDS011;46975;51.898;11.444;2022-11-25T06:10:51;8.02;;;2.67;;
61091;SDS011;46975;51.898;11.444;2022-11-25T06:13:17;10.88;;;3.45;;
61091;SDS011;46975;51.898;11.444;2022-11-25T06:15:43;10.95;;;2.95;;
61091;SDS011;46975;51.898;11.444;2022-11-25T06:18:10;6.47;;;2.83;;
61091;SDS011;46975;51.898;11.444;2022-11-25T06:20:36;9.15;;;2.80;;
61091;SDS011;46975;51.898;11.444;2022-11-25T06:23:02;8.13;;;3.58;;
61091;SDS011;46975;51.898;11.444;2022-11-25T06:25:29;10.13;;;2.25;;
61091;SDS011;46975;51.898;11.444;2022-11-25T06:27:55;8.02;;;2.85;;
61091;SDS011;46975;51.898;11.444;2022-11-25T06:30:20;8.15;;;3.35;;
61091;SDS011;46975;51.898;11.444;2022-11-25T06:32:46;10.48;;;3.60;;
61091;SDS011;46975;51.898;11.444;2022-11-25T06:35:12;10.20;;;2.55;;
61091;SDS011;46975;51.898;11.444;2022-11-25T06:37:38;7.18;;;2.80;;
61091;SDS011;46975;51.898;11.444;2022-11-25T06:40:04;7.25;;;3.00;;
61091;SDS011;46975;51.898;11.444;2022-11-25T06:42:30;8.05;;;2.47;;
61091;SDS011;46975;51.898;11.444;2022-11-25T06:44:56;8.48;;;2.35;;
61091;SDS011;46975;51.898;11.444;2022-11-25T06:47:22;7.25;;;2.38;;
61091;SDS011;46975;51.898;11.444;2022-11-25T06:49:48;8.50;;;2.45;;
61091;SDS011;46975;51.898;11.444;2022-11-25T06:52:14;5.25;;;2.00;;
61091;SDS011;46975;51.898;11.444;2022-11-25T06:54:39;6.43;;;2.10;;
61091;SDS011;46975;51.898;11.444;2022-11-25T06:57:09;7.32;;;2.45;;
61091;SDS011;46975;51.898;11.444;2022-11-25T06:59:35;12.40;;;2.22;;
61091;SDS011;46975;51.898;11.444;2022-11-25T07:02:01;8.10;;;2.30;;
61091;SDS011;46975;51.898;11.444;2022-11-25T07:04:28;11.60;;;3.33;;
61091;SDS011;46975;51.898;11.444;2022-11-25T07:06:53;7.78;;;2.63;;
61091;SDS011;46975;51.898;11.444;2022-11-25T07:09:19;8.90;;;2.95;;
61091;SDS011;46975;51.898;11.444;2022-11-25T07:11:46;9.88;;;2.72;;
61091;SDS011;46975;51.898;11.444;2022-11-25T07:14:13;5.07;;;2.55;;
61091;SDS011;46975;51.898;11.444;2022-11-25T07:16:40;9.90;;;3.35;;
61091;SDS011;46975;51.898;11.444;2022-11-25T07:19:09;5.90;;;2.30;;
61091;SDS011;46975;51.898;11.444;2022-11-25T07:24:03;3.63;;;2.13;;
61091;SDS011;46975;51.898;11.444;2022-11-25T07:26:31;4.80;;;2.42;;
61091;SDS011;46975;51.898;11.444;2022-11-25T07:31:27;3.72;;;2.08;;
61091;SDS011;46975;51.898;11.444;2022-11-25T07:34:02;5.25;;;2.47;;
61091;SDS011;46975;51.898;11.444;2022-11-25T07:36:35;7.78;;;3.38;;
61091;SDS011;46975;51.898;11.444;2022-11-25T07:39:03;6.97;;;2.25;;
61091;SDS011;46975;51.898;11.444;2022-11-25T07:41:34;7.40;;;2.50;;
61091;SDS011;46975;51.898;11.444;2022-11-25T07:44:02;10.88;;;3.83;;
61091;SDS011;46975;51.898;11.444;2022-11-25T07:46:30;4.72;;;2.53;;
61091;SDS011;46975;51.898;11.444;2022-11-25T07:49:01;7.00;;;2.97;;
61091;SDS011;46975;51.898;11.444;2022-11-25T07:51:41;5.05;;;1.77;;
61091;SDS011;46975;51.898;11.444;2022-11-25T07:54:11;5.30;;;2.35;;
61091;SDS011;46975;51.898;11.444;2022-11-25T07:56:38;5.28;;;2.58;;
61091;SDS011;46975;51.898;11.444;2022-11-25T07:59:06;6.28;;;2.35;;
61091;SDS011;46975;51.898;11.444;2022-11-25T08:03:59;4.60;;;2.40;;
61091;SDS011;46975;51.898;11.444;2022-11-25T08:06:26;6.35;;;2.17;;
61091;SDS011;46975;51.898;11.444;2022-11-25T08:08:53;6.45;;;1.67;;
61091;SDS011;46975;51.898;11.444;2022-11-25T08:11:21;5.15;;;1.98;;
61091;SDS011;46975;51.898;11.444;2022-11-25T08:13:54;9.82;;;2.58;;
61091;SDS011;46975;51.898;11.444;2022-11-25T08:16:21;8.80;;;2.72;;
61091;SDS011;46975;51.898;11.444;2022-11-25T08:18:50;6.75;;;2.17;;
61091;SDS011;46975;51.898;11.444;2022-11-25T08:21:16;5.05;;;2.03;;
61091;SDS011;46975;51.898;11.444;2022-11-25T08:23:42;14.25;;;3.05;;
61091;SDS011;46975;51.898;11.444;2022-11-25T08:26:12;5.65;;;2.42;;
61091;SDS011;46975;51.898;11.444;2022-11-25T08:28:46;4.57;;;2.03;;
61091;SDS011;46975;51.898;11.444;2022-11-25T08:31:20;4.15;;;2.33;;
61091;SDS011;46975;51.898;11.444;2022-11-25T08:33:49;8.57;;;2.88;;
61091;SDS011;46975;51.898;11.444;2022-11-25T08:36:16;6.65;;;4.13;;
61091;SDS011;46975;51.898;11.444;2022-11-25T08:38:43;10.25;;;3.25;;
61091;SDS011;46975;51.898;11.444;2022-11-25T08:41:15;6.38;;;3.00;;
61091;SDS011;46975;51.898;11.444;2022-11-25T08:43:46;4.13;;;2.00;;
61091;SDS011;46975;51.898;11.444;2022-11-25T08:46:14;5.38;;;2.78;;
61091;SDS011;46975;51.898;11.444;2022-11-25T08:48:45;4.90;;;2.80;;
61091;SDS011;46975;51.898;11.444;2022-11-25T08:51:12;8.20;;;2.38;;
61091;SDS011;46975;51.898;11.444;2022-11-25T08:53:43;10.15;;;3.40;;
61091;SDS011;46975;51.898;11.444;2022-11-25T08:56:10;8.50;;;3.53;;
61091;SDS011;46975;51.898;11.444;2022-11-25T08:58:36;5.85;;;3.95;;
61091;SDS011;46975;51.898;11.444;2022-11-25T09:01:02;7.47;;;3.00;;
61091;SDS011;46975;51.898;11.444;2022-11-25T09:03:36;4.95;;;2.65;;
61091;SDS011;46975;51.898;11.444;2022-11-25T09:06:04;9.18;;;3.90;;
61091;SDS011;46975;51.898;11.444;2022-11-25T09:08:30;8.25;;;4.38;;
61091;SDS011;46975;51.898;11.444;2022-11-25T09:10:56;9.27;;;4.25;;
61091;SDS011;46975;51.898;11.444;2022-11-25T09:13:22;12.13;;;5.35;;
61091;SDS011;46975;51.898;11.444;2022-11-25T09:15:48;16.38;;;7.00;;
61091;SDS011;46975;51.898;11.444;2022-11-25T09:18:14;14.48;;;7.75;;
61091;SDS011;46975;51.898;11.444;2022-11-25T09:20:40;23.52;;;7.78;;
61091;SDS011;46975;51.898;11.444;2022-11-25T09:23:07;11.40;;;3.95;;
61091;SDS011;46975;51.898;11.444;2022-11-25T09:25:33;8.70;;;3.30;;
61091;SDS011;46975;51.898;11.444;2022-11-25T09:27:59;5.72;;;3.00;;
61091;SDS011;46975;51.898;11.444;2022-11-25T09:30:25;9.40;;;3.45;;
61091;SDS011;46975;51.898;11.444;2022-11-25T09:32:52;8.80;;;3.10;;
61091;SDS011;46975;51.898;11.444;2022-11-25T09:35:19;14.40;;;5.47;;
61091;SDS011;46975;51.898;11.444;2022-11-25T09:37:46;24.20;;;8.95;;
61091;SDS011;46975;51.898;11.444;2022-11-25T09:43:50;9.32;;;3.30;;
61091;SDS011;46975;51.898;11.444;2022-11-25T09:54:36;8.80;;;3.25;;
61091;SDS011;46975;51.898;11.444;2022-11-25T09:59:41;9.75;;;3.92;;
61091;SDS011;46975;51.898;11.444;2022-11-25T10:02:19;10.40;;;3.60;;
61091;SDS011;46975;51.898;11.444;2022-11-25T10:04:58;9.82;;;3.35;;
61091;SDS011;46975;51.898;11.444;2022-11-25T10:07:32;9.57;;;3.38;;
61091;SDS011;46975;51.898;11.444;2022-11-25T10:10:02;10.43;;;4.38;;
61091;SDS011;46975;51.898;11.444;2022-11-25T10:12:31;7.43;;;3.38;;
61091;SDS011;46975;51.898;11.444;2022-11-25T10:15:02;8.50;;;3.55;;
61091;SDS011;46975;51.898;11.444;2022-11-25T10:17:41;11.23;;;4.75;;
61091;SDS011;46975;51.898;11.444;2022-11-25T10:20:23;14.40;;;5.00;;
61091;SDS011;46975;51.898;11.444;2022-11-25T10:22:54;13.27;;;5.97;;
61091;SDS011;46975;51.898;11.444;2022-11-25T10:25:29;8.23;;;5.20;;
61091;SDS011;46975;51.898;11.444;2022-11-25T10:28:03;12.50;;;6.07;;
61091;SDS011;46975;51.898;11.444;2022-11-25T10:35:56;11.20;;;4.95;;
61091;SDS011;46975;51.898;11.444;2022-11-25T10:39:01;8.02;;;3.88;;
61091;SDS011;46975;51.898;11.444;2022-11-25T10:41:29;13.40;;;5.45;;
61091;SDS011;46975;51.898;11.444;2022-11-25T10:43:57;8.50;;;4.43;;
61091;SDS011;46975;51.898;11.444;2022-11-25T10:46:31;10.82;;;3.15;;
61091;SDS011;46975;51.898;11.444;2022-11-25T10:49:25;8.10;;;3.30;;
61091;SDS011;46975;51.898;11.444;2022-11-25T10:52:00;9.63;;;4.38;;
61091;SDS011;46975;51.898;11.444;2022-11-25T10:54:27;10.52;;;4.10;;
61091;SDS011;46975;51.898;11.444;2022-11-25T10:56:57;7.40;;;4.00;;
61091;SDS011;46975;51.898;11.444;2022-11-25T10:59:38;10.82;;;4.20;;
61091;SDS011;46975;51.898;11.444;2022-11-25T11:02:15;6.82;;;3.38;;
61091;SDS011;46975;51.898;11.444;2022-11-25T11:04:58;11.27;;;4.22;;
61091;SDS011;46975;51.898;11.444;2022-11-25T11:07:44;9.32;;;3.45;;
61091;SDS011;46975;51.898;11.444;2022-11-25T11:13:08;20.25;;;5.38;;
61091;SDS011;46975;51.898;11.444;2022-11-25T11:15:45;13.32;;;5.03;;
61091;SDS011;46975;51.898;11.444;2022-11-25T11:20:53;24.88;;;8.55;;
61091;SDS011;46975;51.898;11.444;2022-11-25T11:28:56;14.57;;;4.07;;
61091;SDS011;46975;51.898;11.444;2022-11-25T11:31:23;11.40;;;4.47;;
61091;SDS011;46975;51.898;11.444;2022-11-25T11:36:41;31.27;;;7.57;;
61091;SDS011;46975;51.898;11.444;2022-11-25T11:50:26;7.40;;;4.00;;
61091;SDS011;46975;51.898;11.444;2022-11-25T11:58:18;9.00;;;3.13;;
61091;SDS011;46975;51.898;11.444;2022-11-25T12:03:37;5.20;;;2.08;;
61091;SDS011;46975;51.898;11.444;2022-11-25T12:06:08;7.63;;;2.67;;
61091;SDS011;46975;51.898;11.444;2022-11-25T12:08:41;5.43;;;1.98;;
61091;SDS011;46975;51.898;11.444;2022-11-25T12:11:21;11.10;;;2.95;;
61091;SDS011;46975;51.898;11.444;2022-11-25T12:13:57;6.18;;;2.53;;
61091;SDS011;46975;51.898;11.444;2022-11-25T12:16:56;9.15;;;2.75;;
61091;SDS011;46975;51.898;11.444;2022-11-25T12:22:01;7.65;;;2.50;;
61091;SDS011;46975;51.898;11.444;2022-11-25T12:37:44;8.55;;;3.20;;
61091;SDS011;46975;51.898;11.444;2022-11-25T12:40:34;7.68;;;2.80;;
61091;SDS011;46975;51.898;11.444;2022-11-25T12:46:27;16.25;;;5.63;;
61091;SDS011;46975;51.898;11.444;2022-11-25T12:48:59;19.30;;;7.65;;
61091;SDS011;46975;51.898;11.444;2022-11-25T12:59:21;6.63;;;2.33;;
61091;SDS011;46975;51.898;11.444;2022-11-25T13:02:01;6.07;;;2.83;;
61091;SDS011;46975;51.898;11.444;2022-11-25T13:05:02;7.38;;;1.92;;
61091;SDS011;46975;51.898;11.444;2022-11-25T13:13:26;10.32;;;2.55;;
61091;SDS011;46975;51.898;11.444;2022-11-25T13:15:54;3.90;;;1.67;;
61091;SDS011;46975;51.898;11.444;2022-11-25T13:18:24;7.80;;;1.63;;
61091;SDS011;46975;51.898;11.444;2022-11-25T13:20:53;5.63;;;1.23;;
61091;SDS011;46975;51.898;11.444;2022-11-25T13:25:49;8.93;;;2.17;;
61091;SDS011;46975;51.898;11.444;2022-11-25T13:28:27;5.93;;;2.20;;
61091;SDS011;46975;51.898;11.444;2022-11-25T13:36:22;10.18;;;2.40;;
61091;SDS011;46975;51.898;11.444;2022-11-25T13:46:44;4.93;;;2.05;;
61091;SDS011;46975;51.898;11.444;2022-11-25T13:49:29;5.85;;;1.73;;
61091;SDS011;46975;51.898;11.444;2022-11-25T13:52:05;4.90;;;2.15;;
61091;SDS011;46975;51.898;11.444;2022-11-25T13:54:52;9.20;;;2.58;;
61091;SDS011;46975;51.898;11.444;2022-11-25T13:57:24;7.53;;;3.53;;
61091;SDS011;46975;51.898;11.444;2022-11-25T14:00:06;9.98;;;4.07;;
61091;SDS011;46975;51.898;11.444;2022-11-25T14:02:53;10.95;;;3.47;;
61091;SDS011;46975;51.898;11.444;2022-11-25T14:05:31;7.93;;;3.40;;
61091;SDS011;46975;51.898;11.444;2022-11-25T14:10:52;13.40;;;4.88;;
61091;SDS011;46975;51.898;11.444;2022-11-25T14:24:27;5.25;;;2.83;;
61091;SDS011;46975;51.898;11.444;2022-11-25T14:26:55;5.63;;;2.75;;
61091;SDS011;46975;51.898;11.444;2022-11-25T14:29:34;8.10;;;3.25;;
61091;SDS011;46975;51.898;11.444;2022-11-25T14:32:02;9.37;;;4.33;;
61091;SDS011;46975;51.898;11.444;2022-11-25T14:34:49;12.07;;;4.22;;
61091;SDS011;46975;51.898;11.444;2022-11-25T14:37:26;6.72;;;2.63;;
61091;SDS011;46975;51.898;11.444;2022-11-25T14:40:00;5.65;;;3.85;;
61091;SDS011;46975;51.898;11.444;2022-11-25T14:42:39;8.20;;;2.83;;
61091;SDS011;46975;51.898;11.444;2022-11-25T14:45:19;9.88;;;3.63;;
61091;SDS011;46975;51.898;11.444;2022-11-25T14:47:50;6.60;;;3.63;;
61091;SDS011;46975;51.898;11.444;2022-11-25T14:50:16;11.48;;;4.88;;
61091;SDS011;46975;51.898;11.444;2022-11-25T14:52:42;8.40;;;3.42;;
61091;SDS011;46975;51.898;11.444;2022-11-25T14:55:11;11.68;;;5.28;;
61091;SDS011;46975;51.898;11.444;2022-11-25T14:57:47;29.08;;;12.85;;
61091;SDS011;46975;51.898;11.444;2022-11-25T15:00:14;19.55;;;9.15;;
61091;SDS011;46975;51.898;11.444;2022-11-25T15:02:57;16.75;;;7.90;;
61091;SDS011;46975;51.898;11.444;2022-11-25T15:05:25;15.13;;;7.05;;
61091;SDS011;46975;51.898;11.444;2022-11-25T15:08:02;13.63;;;5.15;;
61091;SDS011;46975;51.898;11.444;2022-11-25T15:13:12;13.55;;;5.15;;
61091;SDS011;46975;51.898;11.444;2022-11-25T15:15:48;12.70;;;5.63;;
61091;SDS011;46975;51.898;11.444;2022-11-25T15:18:19;6.53;;;4.53;;
61091;SDS011;46975;51.898;11.444;2022-11-25T15:20:47;11.88;;;4.93;;
61091;SDS011;46975;51.898;11.444;2022-11-25T15:23:27;7.88;;;3.75;;
61091;SDS011;46975;51.898;11.444;2022-11-25T15:25:56;7.07;;;3.83;;
61091;SDS011;46975;51.898;11.444;2022-11-25T15:28:22;5.50;;;3.22;;
61091;SDS011;46975;51.898;11.444;2022-11-25T15:30:54;10.13;;;4.63;;
61091;SDS011;46975;51.898;11.444;2022-11-25T15:33:22;12.18;;;5.00;;
61091;SDS011;46975;51.898;11.444;2022-11-25T15:35:50;7.45;;;3.92;;
61091;SDS011;46975;51.898;11.444;2022-11-25T15:38:18;5.13;;;2.92;;
61091;SDS011;46975;51.898;11.444;2022-11-25T15:40:59;8.25;;;3.30;;
61091;SDS011;46975;51.898;11.444;2022-11-25T15:43:27;4.68;;;2.65;;
61091;SDS011;46975;51.898;11.444;2022-11-25T15:45:55;5.82;;;3.60;;
61091;SDS011;46975;51.898;11.444;2022-11-25T15:48:28;5.90;;;3.78;;
61091;SDS011;46975;51.898;11.444;2022-11-25T15:51:03;20.45;;;10.05;;
61091;SDS011;46975;51.898;11.444;2022-11-25T15:53:31;24.75;;;13.20;;
61091;SDS011;46975;51.898;11.444;2022-11-25T15:56:01;29.75;;;16.08;;
61091;SDS011;46975;51.898;11.444;2022-11-25T15:58:29;29.38;;;17.95;;
61091;SDS011;46975;51.898;11.444;2022-11-25T16:01:36;32.10;;;18.13;;
61091;SDS011;46975;51.898;11.444;2022-11-25T16:03:46;53.13;;;27.52;;
61091;SDS011;46975;51.898;11.444;2022-11-25T16:06:23;54.35;;;26.33;;
61091;SDS011;46975;51.898;11.444;2022-11-25T16:08:54;50.00;;;23.10;;
61091;SDS011;46975;51.898;11.444;2022-11-25T16:11:24;42.83;;;21.63;;
61091;SDS011;46975;51.898;11.444;2022-11-25T16:13:53;40.45;;;20.33;;
61091;SDS011;46975;51.898;11.444;2022-11-25T16:16:39;43.92;;;19.55;;
61091;SDS011;46975;51.898;11.444;2022-11-25T16:19:09;48.00;;;20.33;;
61091;SDS011;46975;51.898;11.444;2022-11-25T16:24:25;41.05;;;21.27;;
61091;SDS011;46975;51.898;11.444;2022-11-25T16:29:50;58.72;;;26.85;;
61091;SDS011;46975;51.898;11.444;2022-11-25T16:32:18;66.50;;;32.47;;
61091;SDS011;46975;51.898;11.444;2022-11-25T16:34:45;54.88;;;25.67;;
61091;SDS011;46975;51.898;11.444;2022-11-25T16:37:11;62.95;;;29.83;;
61091;SDS011;46975;51.898;11.444;2022-11-25T16:39:37;50.33;;;22.10;;
61091;SDS011;46975;51.898;11.444;2022-11-25T16:42:03;54.83;;;22.70;;
61091;SDS011;46975;51.898;11.444;2022-11-25T16:44:30;70.30;;;27.92;;
61091;SDS011;46975;51.898;11.444;2022-11-25T16:46:57;68.20;;;29.17;;
61091;SDS011;46975;51.898;11.444;2022-11-25T16:49:24;57.95;;;27.77;;
61091;SDS011;46975;51.898;11.444;2022-11-25T16:51:50;43.30;;;18.63;;
61091;SDS011;46975;51.898;11.444;2022-11-25T16:54:17;23.50;;;11.35;;
61091;SDS011;46975;51.898;11.444;2022-11-25T16:56:44;43.35;;;14.95;;
61091;SDS011;46975;51.898;11.444;2022-11-25T16:59:19;27.98;;;11.95;;
61091;SDS011;46975;51.898;11.444;2022-11-25T17:01:44;34.13;;;15.00;;
61091;SDS011;46975;51.898;11.444;2022-11-25T17:04:11;32.83;;;15.43;;